sensor_id;sensor_type;location;lat;lon;timestamp;P1;durP1;ratioP1;P2;durP2;ratioP2
18544;SDS011;9402;51.460;7.276;2023-05-28T00:00:07;18.70;;;8.20;;
18544;SDS011;9402;51.460;7.276;2023-05-28T00:02:10;16.50;;;8.80;;
18544;SDS011;9402;51.460;7.276;2023-05-28T00:04:12;19.47;;;9.20;;
18544;SDS011;9402;51.460;7.276;2023-05-28T00:06:14;16.43;;;8.20;;
18544;SDS011;9402;51.460;7.276;2023-05-28T00:08:15;13.63;;;7.73;;
18544;SDS011;9402;51.460;7.276;2023-05-28T00:10:17;15.30;;;8.20;;
18544;SDS011;9402;51.460;7.276;2023-05-28T00:12:20;24.60;;;9.00;;
18544;SDS011;9402;51.460;7.276;2023-05-28T00:14:21;16.00;;;9.60;;
18544;SDS011;9402;51.460;7.276;2023-05-28T00:16:23;13.87;;;8.43;;
18544;SDS011;9402;51.460;7.276;2023-05-28T00:18:25;18.57;;;8.07;;
18544;SDS011;9402;51.460;7.276;2023-05-28T00:20:28;18.43;;;8.60;;
18544;SDS011;9402;51.460;7.276;2023-05-28T00:22:29;16.13;;;8.73;;
18544;SDS011;9402;51.460;7.276;2023-05-28T00:24:31;16.00;;;8.20;;
18544;SDS011;9402;51.460;7.276;2023-05-28T00:26:33;21.03;;;8.40;;
18544;SDS011;9402;51.460;7.276;2023-05-28T00:28:36;12.23;;;7.40;;
18544;SDS011;9402;51.460;7.276;2023-05-28T00:30:37;18.27;;;7.43;;
18544;SDS011;9402;51.460;7.276;2023-05-28T00:32:39;14.10;;;7.53;;
18544;SDS011;9402;51.460;7.276;2023-05-28T00:34:40;15.40;;;7.50;;
18544;SDS011;9402;51.460;7.276;2023-05-28T00:36:42;17.47;;;8.37;;
18544;SDS011;9402;51.460;7.276;2023-05-28T00:38:44;15.40;;;7.73;;
18544;SDS011;9402;51.460;7.276;2023-05-28T00:40:45;12.57;;;7.50;;
18544;SDS011;9402;51.460;7.276;2023-05-28T00:42:47;16.87;;;8.70;;
18544;SDS011;9402;51.460;7.276;2023-05-28T00:44:50;16.73;;;9.10;;
18544;SDS011;9402;51.460;7.276;2023-05-28T00:46:52;18.87;;;8.73;;
18544;SDS011;9402;51.460;7.276;2023-05-28T00:48:53;14.83;;;7.97;;
18544;SDS011;9402;51.460;7.276;2023-05-28T00:50:55;18.47;;;9.10;;
18544;SDS011;9402;51.460;7.276;2023-05-28T00:52:57;15.50;;;8.40;;
18544;SDS011;9402;51.460;7.276;2023-05-28T00:54:58;17.13;;;8.70;;
18544;SDS011;9402;51.460;7.276;2023-05-28T00:57:00;20.90;;;7.80;;
18544;SDS011;9402;51.460;7.276;2023-05-28T00:59:03;14.17;;;7.03;;
18544;SDS011;9402;51.460;7.276;2023-05-28T01:01:06;13.73;;;7.77;;
18544;SDS011;9402;51.460;7.276;2023-05-28T01:03:10;17.73;;;8.10;;
18544;SDS011;9402;51.460;7.276;2023-05-28T01:05:11;18.10;;;8.57;;
18544;SDS011;9402;51.460;7.276;2023-05-28T01:07:14;14.57;;;7.47;;
18544;SDS011;9402;51.460;7.276;2023-05-28T01:09:16;13.10;;;7.87;;
18544;SDS011;9402;51.460;7.276;2023-05-28T01:11:18;14.50;;;8.13;;
18544;SDS011;9402;51.460;7.276;2023-05-28T01:13:20;11.37;;;7.60;;
18544;SDS011;9402;51.460;7.276;2023-05-28T01:15:22;17.33;;;7.93;;
18544;SDS011;9402;51.460;7.276;2023-05-28T01:17:25;16.90;;;8.87;;
18544;SDS011;9402;51.460;7.276;2023-05-28T01:19:28;13.73;;;8.50;;
18544;SDS011;9402;51.460;7.276;2023-05-28T01:21:31;16.33;;;8.37;;
18544;SDS011;9402;51.460;7.276;2023-05-28T01:23:37;17.23;;;8.23;;
18544;SDS011;9402;51.460;7.276;2023-05-28T01:25:39;12.00;;;6.97;;
18544;SDS011;9402;51.460;7.276;2023-05-28T01:27:41;17.47;;;8.20;;
18544;SDS011;9402;51.460;7.276;2023-05-28T01:29:43;14.90;;;7.03;;
18544;SDS011;9402;51.460;7.276;2023-05-28T01:31:44;14.10;;;7.33;;
18544;SDS011;9402;51.460;7.276;2023-05-28T01:33:46;12.83;;;7.43;;
18544;SDS011;9402;51.460;7.276;2023-05-28T01:35:48;16.80;;;7.53;;
18544;SDS011;9402;51.460;7.276;2023-05-28T01:37:51;13.70;;;8.07;;
18544;SDS011;9402;51.460;7.276;2023-05-28T01:39:59;11.00;;;7.03;;
18544;SDS011;9402;51.460;7.276;2023-05-28T01:42:03;16.27;;;8.57;;
18544;SDS011;9402;51.460;7.276;2023-05-28T01:44:05;14.10;;;9.00;;
18544;SDS011;9402;51.460;7.276;2023-05-28T01:46:07;17.93;;;8.57;;
18544;SDS011;9402;51.460;7.276;2023-05-28T01:48:09;13.60;;;8.10;;
18544;SDS011;9402;51.460;7.276;2023-05-28T01:50:11;13.93;;;8.77;;
18544;SDS011;9402;51.460;7.276;2023-05-28T01:52:13;19.90;;;8.77;;
18544;SDS011;9402;51.460;7.276;2023-05-28T01:54:15;15.70;;;7.97;;
18544;SDS011;9402;51.460;7.276;2023-05-28T01:56:18;18.77;;;6.70;;
18544;SDS011;9402;51.460;7.276;2023-05-28T01:58:20;14.30;;;7.30;;
18544;SDS011;9402;51.460;7.276;2023-05-28T02:00:22;13.10;;;7.50;;
18544;SDS011;9402;51.460;7.276;2023-05-28T02:02:24;11.73;;;7.73;;
18544;SDS011;9402;51.460;7.276;2023-05-28T02:04:26;16.43;;;6.80;;
18544;SDS011;9402;51.460;7.276;2023-05-28T02:06:29;16.30;;;6.30;;
18544;SDS011;9402;51.460;7.276;2023-05-28T02:08:32;15.27;;;7.80;;
18544;SDS011;9402;51.460;7.276;2023-05-28T02:10:34;14.50;;;6.70;;
18544;SDS011;9402;51.460;7.276;2023-05-28T02:12:37;16.60;;;7.80;;
18544;SDS011;9402;51.460;7.276;2023-05-28T02:14:38;14.77;;;7.83;;
18544;SDS011;9402;51.460;7.276;2023-05-28T02:16:41;14.97;;;6.60;;
18544;SDS011;9402;51.460;7.276;2023-05-28T02:18:43;11.00;;;7.77;;
18544;SDS011;9402;51.460;7.276;2023-05-28T02:20:45;11.30;;;5.63;;
18544;SDS011;9402;51.460;7.276;2023-05-28T02:22:46;8.03;;;5.63;;
18544;SDS011;9402;51.460;7.276;2023-05-28T02:24:48;10.10;;;5.77;;
18544;SDS011;9402;51.460;7.276;2023-05-28T02:26:50;9.93;;;6.37;;
18544;SDS011;9402;51.460;7.276;2023-05-28T02:28:53;15.33;;;7.43;;
18544;SDS011;9402;51.460;7.276;2023-05-28T02:30:54;12.60;;;6.37;;
18544;SDS011;9402;51.460;7.276;2023-05-28T02:32:56;12.70;;;7.07;;
18544;SDS011;9402;51.460;7.276;2023-05-28T02:34:57;12.90;;;6.93;;
18544;SDS011;9402;51.460;7.276;2023-05-28T02:36:59;19.83;;;7.30;;
18544;SDS011;9402;51.460;7.276;2023-05-28T02:39:01;10.20;;;6.00;;
18544;SDS011;9402;51.460;7.276;2023-05-28T02:41:03;12.13;;;6.97;;
18544;SDS011;9402;51.460;7.276;2023-05-28T02:43:05;10.27;;;6.83;;
18544;SDS011;9402;51.460;7.276;2023-05-28T02:45:08;17.90;;;6.40;;
18544;SDS011;9402;51.460;7.276;2023-05-28T02:47:10;12.90;;;6.60;;
18544;SDS011;9402;51.460;7.276;2023-05-28T02:49:12;13.60;;;7.03;;
18544;SDS011;9402;51.460;7.276;2023-05-28T02:51:14;13.03;;;7.13;;
18544;SDS011;9402;51.460;7.276;2023-05-28T02:53:20;18.43;;;7.30;;
18544;SDS011;9402;51.460;7.276;2023-05-28T02:55:22;8.13;;;6.17;;
18544;SDS011;9402;51.460;7.276;2023-05-28T02:57:24;10.97;;;6.13;;
18544;SDS011;9402;51.460;7.276;2023-05-28T02:59:26;9.40;;;5.90;;
18544;SDS011;9402;51.460;7.276;2023-05-28T03:01:29;9.90;;;6.30;;
18544;SDS011;9402;51.460;7.276;2023-05-28T03:03:31;11.47;;;6.30;;
18544;SDS011;9402;51.460;7.276;2023-05-28T03:05:33;11.20;;;6.77;;
18544;SDS011;9402;51.460;7.276;2023-05-28T03:07:34;8.80;;;6.50;;
18544;SDS011;9402;51.460;7.276;2023-05-28T03:09:36;9.47;;;5.33;;
18544;SDS011;9402;51.460;7.276;2023-05-28T03:11:38;7.23;;;5.60;;
18544;SDS011;9402;51.460;7.276;2023-05-28T03:13:39;12.27;;;6.07;;
18544;SDS011;9402;51.460;7.276;2023-05-28T03:15:41;12.30;;;5.60;;
18544;SDS011;9402;51.460;7.276;2023-05-28T03:17:44;20.47;;;6.10;;
18544;SDS011;9402;51.460;7.276;2023-05-28T03:19:45;13.60;;;6.53;;
18544;SDS011;9402;51.460;7.276;2023-05-28T03:21:47;14.73;;;7.03;;
18544;SDS011;9402;51.460;7.276;2023-05-28T03:23:48;14.40;;;7.17;;
18544;SDS011;9402;51.460;7.276;2023-05-28T03:25:50;9.17;;;6.37;;
18544;SDS011;9402;51.460;7.276;2023-05-28T03:27:51;10.60;;;6.93;;
18544;SDS011;9402;51.460;7.276;2023-05-28T03:29:53;19.23;;;8.83;;
18544;SDS011;9402;51.460;7.276;2023-05-28T03:31:55;13.33;;;7.30;;
18544;SDS011;9402;51.460;7.276;2023-05-28T03:33:58;11.23;;;7.80;;
18544;SDS011;9402;51.460;7.276;2023-05-28T03:35:59;14.43;;;7.10;;
18544;SDS011;9402;51.460;7.276;2023-05-28T03:38:01;12.07;;;6.83;;
18544;SDS011;9402;51.460;7.276;2023-05-28T03:40:04;25.63;;;8.70;;
18544;SDS011;9402;51.460;7.276;2023-05-28T03:42:07;12.77;;;7.30;;
18544;SDS011;9402;51.460;7.276;2023-05-28T03:44:08;21.40;;;7.73;;
18544;SDS011;9402;51.460;7.276;2023-05-28T03:46:10;14.03;;;6.93;;
18544;SDS011;9402;51.460;7.276;2023-05-28T03:48:12;17.97;;;6.73;;
18544;SDS011;9402;51.460;7.276;2023-05-28T03:50:15;13.57;;;7.10;;
18544;SDS011;9402;51.460;7.276;2023-05-28T03:52:16;13.03;;;7.17;;
18544;SDS011;9402;51.460;7.276;2023-05-28T03:54:18;12.80;;;8.03;;
18544;SDS011;9402;51.460;7.276;2023-05-28T03:56:20;11.37;;;7.03;;
18544;SDS011;9402;51.460;7.276;2023-05-28T03:58:21;14.70;;;7.87;;
18544;SDS011;9402;51.460;7.276;2023-05-28T04:00:23;12.40;;;7.90;;
18544;SDS011;9402;51.460;7.276;2023-05-28T04:02:25;13.23;;;7.03;;
18544;SDS011;9402;51.460;7.276;2023-05-28T04:04:26;14.70;;;7.87;;
18544;SDS011;9402;51.460;7.276;2023-05-28T04:06:29;18.20;;;8.60;;
18544;SDS011;9402;51.460;7.276;2023-05-28T04:08:32;14.10;;;7.10;;
18544;SDS011;9402;51.460;7.276;2023-05-28T04:10:34;14.10;;;6.17;;
18544;SDS011;9402;51.460;7.276;2023-05-28T04:12:35;9.20;;;5.97;;
18544;SDS011;9402;51.460;7.276;2023-05-28T04:14:37;12.33;;;6.50;;
18544;SDS011;9402;51.460;7.276;2023-05-28T04:16:40;7.53;;;5.87;;
18544;SDS011;9402;51.460;7.276;2023-05-28T04:18:42;10.50;;;6.20;;
18544;SDS011;9402;51.460;7.276;2023-05-28T04:20:44;9.83;;;5.93;;
18544;SDS011;9402;51.460;7.276;2023-05-28T04:22:47;8.40;;;5.30;;
18544;SDS011;9402;51.460;7.276;2023-05-28T04:24:48;9.97;;;5.93;;
18544;SDS011;9402;51.460;7.276;2023-05-28T04:26:51;10.97;;;6.20;;
18544;SDS011;9402;51.460;7.276;2023-05-28T04:28:53;14.57;;;7.43;;
18544;SDS011;9402;51.460;7.276;2023-05-28T04:30:54;11.67;;;7.23;;
18544;SDS011;9402;51.460;7.276;2023-05-28T04:33:00;18.83;;;9.40;;
18544;SDS011;9402;51.460;7.276;2023-05-28T04:35:02;19.60;;;8.70;;
18544;SDS011;9402;51.460;7.276;2023-05-28T04:37:04;14.90;;;8.70;;
18544;SDS011;9402;51.460;7.276;2023-05-28T04:39:09;14.13;;;7.87;;
18544;SDS011;9402;51.460;7.276;2023-05-28T04:41:10;13.50;;;8.03;;
18544;SDS011;9402;51.460;7.276;2023-05-28T04:43:14;13.53;;;7.43;;
18544;SDS011;9402;51.460;7.276;2023-05-28T04:45:15;19.73;;;9.50;;
18544;SDS011;9402;51.460;7.276;2023-05-28T04:47:17;15.90;;;8.90;;
18544;SDS011;9402;51.460;7.276;2023-05-28T04:49:19;21.07;;;8.20;;
18544;SDS011;9402;51.460;7.276;2023-05-28T04:51:20;14.17;;;8.70;;
18544;SDS011;9402;51.460;7.276;2023-05-28T04:53:22;15.10;;;8.30;;
18544;SDS011;9402;51.460;7.276;2023-05-28T04:55:25;13.60;;;8.37;;
18544;SDS011;9402;51.460;7.276;2023-05-28T04:57:27;20.70;;;8.13;;
18544;SDS011;9402;51.460;7.276;2023-05-28T04:59:29;12.43;;;7.90;;
18544;SDS011;9402;51.460;7.276;2023-05-28T05:01:30;20.50;;;9.00;;
18544;SDS011;9402;51.460;7.276;2023-05-28T05:03:33;18.50;;;9.80;;
18544;SDS011;9402;51.460;7.276;2023-05-28T05:05:36;13.07;;;8.30;;
18544;SDS011;9402;51.460;7.276;2023-05-28T05:07:39;17.03;;;7.90;;
18544;SDS011;9402;51.460;7.276;2023-05-28T05:09:41;17.97;;;9.23;;
18544;SDS011;9402;51.460;7.276;2023-05-28T05:11:44;13.00;;;8.17;;
18544;SDS011;9402;51.460;7.276;2023-05-28T05:13:46;14.17;;;7.50;;
18544;SDS011;9402;51.460;7.276;2023-05-28T05:15:48;25.33;;;10.90;;
18544;SDS011;9402;51.460;7.276;2023-05-28T05:17:50;16.83;;;8.60;;
18544;SDS011;9402;51.460;7.276;2023-05-28T05:19:52;24.33;;;10.60;;
18544;SDS011;9402;51.460;7.276;2023-05-28T05:21:53;16.03;;;9.73;;
18544;SDS011;9402;51.460;7.276;2023-05-28T05:23:55;20.93;;;10.47;;
18544;SDS011;9402;51.460;7.276;2023-05-28T05:25:57;31.57;;;9.10;;
18544;SDS011;9402;51.460;7.276;2023-05-28T05:28:00;23.07;;;9.83;;
18544;SDS011;9402;51.460;7.276;2023-05-28T05:30:01;20.43;;;10.40;;
18544;SDS011;9402;51.460;7.276;2023-05-28T05:32:04;22.20;;;9.70;;
18544;SDS011;9402;51.460;7.276;2023-05-28T05:34:06;20.43;;;11.60;;
18544;SDS011;9402;51.460;7.276;2023-05-28T05:36:08;22.43;;;11.43;;
18544;SDS011;9402;51.460;7.276;2023-05-28T05:38:10;16.90;;;10.40;;
18544;SDS011;9402;51.460;7.276;2023-05-28T05:40:12;17.10;;;10.00;;
18544;SDS011;9402;51.460;7.276;2023-05-28T05:42:14;28.70;;;12.80;;
18544;SDS011;9402;51.460;7.276;2023-05-28T05:44:17;21.23;;;10.83;;
18544;SDS011;9402;51.460;7.276;2023-05-28T05:46:19;17.83;;;9.93;;
18544;SDS011;9402;51.460;7.276;2023-05-28T05:48:21;19.07;;;11.27;;
18544;SDS011;9402;51.460;7.276;2023-05-28T05:50:22;19.37;;;10.07;;
18544;SDS011;9402;51.460;7.276;2023-05-28T05:52:24;21.63;;;11.20;;
18544;SDS011;9402;51.460;7.276;2023-05-28T05:54:25;28.90;;;10.97;;
18544;SDS011;9402;51.460;7.276;2023-05-28T05:56:27;21.90;;;12.93;;
18544;SDS011;9402;51.460;7.276;2023-05-28T05:58:29;23.30;;;13.40;;
18544;SDS011;9402;51.460;7.276;2023-05-28T06:00:33;23.63;;;13.37;;
18544;SDS011;9402;51.460;7.276;2023-05-28T06:02:34;34.67;;;16.17;;
18544;SDS011;9402;51.460;7.276;2023-05-28T06:04:37;24.30;;;15.60;;
18544;SDS011;9402;51.460;7.276;2023-05-28T06:06:39;30.33;;;15.17;;
18544;SDS011;9402;51.460;7.276;2023-05-28T06:08:40;24.20;;;15.07;;
18544;SDS011;9402;51.460;7.276;2023-05-28T06:10:42;27.43;;;15.30;;
18544;SDS011;9402;51.460;7.276;2023-05-28T06:12:44;30.80;;;14.57;;
18544;SDS011;9402;51.460;7.276;2023-05-28T06:14:45;27.37;;;16.07;;
18544;SDS011;9402;51.460;7.276;2023-05-28T06:16:48;26.80;;;15.70;;
18544;SDS011;9402;51.460;7.276;2023-05-28T06:18:50;24.17;;;13.67;;
18544;SDS011;9402;51.460;7.276;2023-05-28T06:20:51;24.53;;;13.40;;
18544;SDS011;9402;51.460;7.276;2023-05-28T06:22:53;23.37;;;13.77;;
18544;SDS011;9402;51.460;7.276;2023-05-28T06:24:56;29.53;;;12.17;;
18544;SDS011;9402;51.460;7.276;2023-05-28T06:26:57;27.40;;;12.37;;
18544;SDS011;9402;51.460;7.276;2023-05-28T06:28:59;23.93;;;10.37;;
18544;SDS011;9402;51.460;7.276;2023-05-28T06:31:00;24.03;;;11.53;;
18544;SDS011;9402;51.460;7.276;2023-05-28T06:33:04;23.90;;;11.43;;
18544;SDS011;9402;51.460;7.276;2023-05-28T06:35:06;18.40;;;9.97;;
18544;SDS011;9402;51.460;7.276;2023-05-28T06:37:08;13.47;;;9.17;;
18544;SDS011;9402;51.460;7.276;2023-05-28T06:39:09;23.27;;;10.47;;
18544;SDS011;9402;51.460;7.276;2023-05-28T06:41:11;16.10;;;8.47;;
18544;SDS011;9402;51.460;7.276;2023-05-28T06:43:12;13.40;;;8.10;;
18544;SDS011;9402;51.460;7.276;2023-05-28T06:45:14;18.73;;;8.77;;
18544;SDS011;9402;51.460;7.276;2023-05-28T06:47:17;19.70;;;9.03;;
18544;SDS011;9402;51.460;7.276;2023-05-28T06:49:20;11.90;;;7.47;;
18544;SDS011;9402;51.460;7.276;2023-05-28T06:51:22;18.73;;;8.70;;
18544;SDS011;9402;51.460;7.276;2023-05-28T06:53:23;14.97;;;8.17;;
18544;SDS011;9402;51.460;7.276;2023-05-28T06:55:25;16.50;;;8.50;;
18544;SDS011;9402;51.460;7.276;2023-05-28T06:57:27;14.97;;;8.33;;
18544;SDS011;9402;51.460;7.276;2023-05-28T06:59:28;14.70;;;7.83;;
18544;SDS011;9402;51.460;7.276;2023-05-28T07:01:30;19.97;;;7.53;;
18544;SDS011;9402;51.460;7.276;2023-05-28T07:03:32;13.73;;;8.60;;
18544;SDS011;9402;51.460;7.276;2023-05-28T07:05:36;19.63;;;8.57;;
18544;SDS011;9402;51.460;7.276;2023-05-28T07:07:38;16.60;;;7.20;;
18544;SDS011;9402;51.460;7.276;2023-05-28T07:09:40;14.60;;;7.80;;
18544;SDS011;9402;51.460;7.276;2023-05-28T07:11:41;23.83;;;8.77;;
18544;SDS011;9402;51.460;7.276;2023-05-28T07:13:43;14.00;;;7.30;;
18544;SDS011;9402;51.460;7.276;2023-05-28T07:15:46;14.20;;;7.93;;
18544;SDS011;9402;51.460;7.276;2023-05-28T07:17:48;14.43;;;7.73;;
18544;SDS011;9402;51.460;7.276;2023-05-28T07:19:49;15.93;;;8.07;;
18544;SDS011;9402;51.460;7.276;2023-05-28T07:21:52;16.23;;;8.73;;
18544;SDS011;9402;51.460;7.276;2023-05-28T07:23:54;18.90;;;8.97;;
18544;SDS011;9402;51.460;7.276;2023-05-28T07:25:56;13.30;;;7.13;;
18544;SDS011;9402;51.460;7.276;2023-05-28T07:27:57;16.50;;;7.50;;
18544;SDS011;9402;51.460;7.276;2023-05-28T07:29:59;11.80;;;5.97;;
18544;SDS011;9402;51.460;7.276;2023-05-28T07:32:00;12.70;;;5.67;;
18544;SDS011;9402;51.460;7.276;2023-05-28T07:34:02;16.03;;;6.73;;
18544;SDS011;9402;51.460;7.276;2023-05-28T07:36:03;11.30;;;6.33;;
18544;SDS011;9402;51.460;7.276;2023-05-28T07:38:07;13.17;;;6.40;;
18544;SDS011;9402;51.460;7.276;2023-05-28T07:40:10;9.10;;;5.50;;
18544;SDS011;9402;51.460;7.276;2023-05-28T07:42:12;16.93;;;5.50;;
18544;SDS011;9402;51.460;7.276;2023-05-28T07:44:14;15.97;;;6.93;;
18544;SDS011;9402;51.460;7.276;2023-05-28T07:46:17;15.70;;;6.63;;
18544;SDS011;9402;51.460;7.276;2023-05-28T07:48:18;16.50;;;8.30;;
18544;SDS011;9402;51.460;7.276;2023-05-28T07:50:20;15.70;;;8.23;;
18544;SDS011;9402;51.460;7.276;2023-05-28T07:52:21;13.33;;;6.37;;
18544;SDS011;9402;51.460;7.276;2023-05-28T07:54:25;13.53;;;6.60;;
18544;SDS011;9402;51.460;7.276;2023-05-28T07:56:26;16.97;;;9.27;;
18544;SDS011;9402;51.460;7.276;2023-05-28T07:58:28;14.97;;;6.70;;
18544;SDS011;9402;51.460;7.276;2023-05-28T08:00:30;12.63;;;6.40;;
18544;SDS011;9402;51.460;7.276;2023-05-28T08:02:31;14.33;;;6.53;;
18544;SDS011;9402;51.460;7.276;2023-05-28T08:04:33;15.13;;;6.50;;
18544;SDS011;9402;51.460;7.276;2023-05-28T08:06:34;14.40;;;6.53;;
18544;SDS011;9402;51.460;7.276;2023-05-28T08:08:36;12.20;;;6.47;;
18544;SDS011;9402;51.460;7.276;2023-05-28T08:10:39;19.10;;;6.90;;
18544;SDS011;9402;51.460;7.276;2023-05-28T08:12:41;14.17;;;5.60;;
18544;SDS011;9402;51.460;7.276;2023-05-28T08:14:42;13.07;;;5.90;;
18544;SDS011;9402;51.460;7.276;2023-05-28T08:16:44;11.80;;;5.30;;
18544;SDS011;9402;51.460;7.276;2023-05-28T08:18:45;12.67;;;5.87;;
18544;SDS011;9402;51.460;7.276;2023-05-28T08:20:47;12.27;;;5.60;;
18544;SDS011;9402;51.460;7.276;2023-05-28T08:22:49;8.73;;;4.80;;
18544;SDS011;9402;51.460;7.276;2023-05-28T08:24:50;9.07;;;5.40;;
18544;SDS011;9402;51.460;7.276;2023-05-28T08:26:53;19.60;;;5.17;;
18544;SDS011;9402;51.460;7.276;2023-05-28T08:28:55;14.93;;;5.40;;
18544;SDS011;9402;51.460;7.276;2023-05-28T08:30:57;16.10;;;6.03;;
18544;SDS011;9402;51.460;7.276;2023-05-28T08:32:58;10.50;;;4.50;;
18544;SDS011;9402;51.460;7.276;2023-05-28T08:35:00;12.07;;;4.57;;
18544;SDS011;9402;51.460;7.276;2023-05-28T08:37:02;20.23;;;5.67;;
18544;SDS011;9402;51.460;7.276;2023-05-28T08:39:06;9.90;;;4.47;;
18544;SDS011;9402;51.460;7.276;2023-05-28T08:41:08;10.87;;;4.30;;
18544;SDS011;9402;51.460;7.276;2023-05-28T08:43:12;14.20;;;5.90;;
18544;SDS011;9402;51.460;7.276;2023-05-28T08:45:13;9.07;;;3.43;;
18544;SDS011;9402;51.460;7.276;2023-05-28T08:47:15;9.30;;;4.97;;
18544;SDS011;9402;51.460;7.276;2023-05-28T08:49:17;11.03;;;4.47;;
18544;SDS011;9402;51.460;7.276;2023-05-28T08:51:19;11.37;;;4.07;;
18544;SDS011;9402;51.460;7.276;2023-05-28T08:53:22;11.83;;;4.47;;
18544;SDS011;9402;51.460;7.276;2023-05-28T08:55:26;11.43;;;3.23;;
18544;SDS011;9402;51.460;7.276;2023-05-28T08:57:28;8.33;;;4.17;;
18544;SDS011;9402;51.460;7.276;2023-05-28T08:59:31;24.27;;;4.10;;
18544;SDS011;9402;51.460;7.276;2023-05-28T09:01:33;14.10;;;4.53;;
18544;SDS011;9402;51.460;7.276;2023-05-28T09:03:37;8.90;;;4.50;;
18544;SDS011;9402;51.460;7.276;2023-05-28T09:05:40;10.53;;;4.40;;
18544;SDS011;9402;51.460;7.276;2023-05-28T09:07:42;12.67;;;4.50;;
18544;SDS011;9402;51.460;7.276;2023-05-28T09:09:44;9.53;;;3.30;;
18544;SDS011;9402;51.460;7.276;2023-05-28T09:11:46;7.63;;;3.47;;
18544;SDS011;9402;51.460;7.276;2023-05-28T09:13:48;3.73;;;3.30;;
18544;SDS011;9402;51.460;7.276;2023-05-28T09:15:51;6.13;;;3.50;;
18544;SDS011;9402;51.460;7.276;2023-05-28T09:17:53;9.00;;;4.20;;
18544;SDS011;9402;51.460;7.276;2023-05-28T09:19:56;12.30;;;4.10;;
18544;SDS011;9402;51.460;7.276;2023-05-28T09:22:00;9.97;;;3.50;;
18544;SDS011;9402;51.460;7.276;2023-05-28T09:24:03;6.27;;;3.53;;
18544;SDS011;9402;51.460;7.276;2023-05-28T09:26:07;8.87;;;3.47;;
18544;SDS011;9402;51.460;7.276;2023-05-28T09:28:10;8.87;;;4.10;;
18544;SDS011;9402;51.460;7.276;2023-05-28T09:30:13;9.33;;;4.33;;
18544;SDS011;9402;51.460;7.276;2023-05-28T09:32:18;11.80;;;4.30;;
18544;SDS011;9402;51.460;7.276;2023-05-28T09:34:20;14.37;;;4.80;;
18544;SDS011;9402;51.460;7.276;2023-05-28T09:36:26;18.67;;;5.23;;
18544;SDS011;9402;51.460;7.276;2023-05-28T09:38:37;7.90;;;3.80;;
18544;SDS011;9402;51.460;7.276;2023-05-28T09:40:40;11.00;;;4.97;;
18544;SDS011;9402;51.460;7.276;2023-05-28T09:42:42;7.63;;;3.80;;
18544;SDS011;9402;51.460;7.276;2023-05-28T09:44:44;10.87;;;3.47;;
18544;SDS011;9402;51.460;7.276;2023-05-28T09:46:46;9.77;;;3.50;;
18544;SDS011;9402;51.460;7.276;2023-05-28T09:48:49;10.80;;;3.77;;
18544;SDS011;9402;51.460;7.276;2023-05-28T09:50:50;9.33;;;4.53;;
18544;SDS011;9402;51.460;7.276;2023-05-28T09:52:54;11.40;;;4.00;;
18544;SDS011;9402;51.460;7.276;2023-05-28T09:54:56;14.50;;;5.27;;
18544;SDS011;9402;51.460;7.276;2023-05-28T09:57:00;13.43;;;4.23;;
18544;SDS011;9402;51.460;7.276;2023-05-28T09:59:05;21.80;;;4.60;;
18544;SDS011;9402;51.460;7.276;2023-05-28T10:01:08;12.53;;;4.40;;
18544;SDS011;9402;51.460;7.276;2023-05-28T10:03:13;7.73;;;4.03;;
18544;SDS011;9402;51.460;7.276;2023-05-28T10:05:19;10.53;;;4.27;;
18544;SDS011;9402;51.460;7.276;2023-05-28T10:07:21;11.30;;;4.13;;
18544;SDS011;9402;51.460;7.276;2023-05-28T10:09:26;7.10;;;3.37;;
18544;SDS011;9402;51.460;7.276;2023-05-28T10:11:29;9.43;;;3.80;;
18544;SDS011;9402;51.460;7.276;2023-05-28T10:13:32;17.23;;;4.20;;
18544;SDS011;9402;51.460;7.276;2023-05-28T10:15:34;6.70;;;3.33;;
18544;SDS011;9402;51.460;7.276;2023-05-28T10:17:35;10.67;;;4.17;;
18544;SDS011;9402;51.460;7.276;2023-05-28T10:19:37;6.80;;;3.30;;
18544;SDS011;9402;51.460;7.276;2023-05-28T10:21:40;6.37;;;3.47;;
18544;SDS011;9402;51.460;7.276;2023-05-28T10:23:42;11.00;;;3.20;;
18544;SDS011;9402;51.460;7.276;2023-05-28T10:25:44;7.60;;;3.23;;
18544;SDS011;9402;51.460;7.276;2023-05-28T10:27:46;5.30;;;3.00;;
18544;SDS011;9402;51.460;7.276;2023-05-28T10:29:49;6.97;;;2.63;;
18544;SDS011;9402;51.460;7.276;2023-05-28T10:31:58;9.40;;;4.07;;
18544;SDS011;9402;51.460;7.276;2023-05-28T10:34:00;6.73;;;3.50;;
18544;SDS011;9402;51.460;7.276;2023-05-28T10:36:02;12.37;;;3.50;;
18544;SDS011;9402;51.460;7.276;2023-05-28T10:38:06;5.80;;;3.33;;
18544;SDS011;9402;51.460;7.276;2023-05-28T10:40:11;17.70;;;4.27;;
18544;SDS011;9402;51.460;7.276;2023-05-28T10:42:23;5.80;;;3.23;;
18544;SDS011;9402;51.460;7.276;2023-05-28T10:44:25;8.80;;;3.60;;
18544;SDS011;9402;51.460;7.276;2023-05-28T10:46:34;9.93;;;3.97;;
18544;SDS011;9402;51.460;7.276;2023-05-28T10:48:39;8.87;;;4.07;;
18544;SDS011;9402;51.460;7.276;2023-05-28T10:50:55;11.40;;;3.87;;
18544;SDS011;9402;51.460;7.276;2023-05-28T10:53:06;13.67;;;4.50;;
18544;SDS011;9402;51.460;7.276;2023-05-28T10:55:09;9.53;;;4.17;;
18544;SDS011;9402;51.460;7.276;2023-05-28T10:57:12;8.37;;;2.87;;
18544;SDS011;9402;51.460;7.276;2023-05-28T10:59:14;7.30;;;3.87;;
18544;SDS011;9402;51.460;7.276;2023-05-28T11:01:19;9.33;;;3.83;;
18544;SDS011;9402;51.460;7.276;2023-05-28T11:03:43;13.87;;;5.47;;
18544;SDS011;9402;51.460;7.276;2023-05-28T11:05:45;7.30;;;3.60;;
18544;SDS011;9402;51.460;7.276;2023-05-28T11:07:47;7.30;;;3.20;;
18544;SDS011;9402;51.460;7.276;2023-05-28T11:09:51;12.20;;;3.70;;
18544;SDS011;9402;51.460;7.276;2023-05-28T11:11:52;9.63;;;2.70;;
18544;SDS011;9402;51.460;7.276;2023-05-28T11:13:54;8.77;;;3.03;;
18544;SDS011;9402;51.460;7.276;2023-05-28T11:16:04;10.83;;;4.53;;
18544;SDS011;9402;51.460;7.276;2023-05-28T11:18:08;18.47;;;3.60;;
18544;SDS011;9402;51.460;7.276;2023-05-28T11:20:16;14.53;;;3.40;;
18544;SDS011;9402;51.460;7.276;2023-05-28T11:22:19;5.07;;;2.50;;
18544;SDS011;9402;51.460;7.276;2023-05-28T11:24:21;4.63;;;3.00;;
18544;SDS011;9402;51.460;7.276;2023-05-28T11:26:24;5.17;;;3.10;;
18544;SDS011;9402;51.460;7.276;2023-05-28T11:28:27;9.90;;;3.50;;
18544;SDS011;9402;51.460;7.276;2023-05-28T11:30:29;6.17;;;3.50;;
18544;SDS011;9402;51.460;7.276;2023-05-28T11:32:32;6.10;;;3.27;;
18544;SDS011;9402;51.460;7.276;2023-05-28T11:34:34;11.67;;;3.23;;
18544;SDS011;9402;51.460;7.276;2023-05-28T11:36:38;5.90;;;3.67;;
18544;SDS011;9402;51.460;7.276;2023-05-28T11:38:43;9.40;;;2.90;;
18544;SDS011;9402;51.460;7.276;2023-05-28T11:40:45;4.30;;;3.13;;
18544;SDS011;9402;51.460;7.276;2023-05-28T11:42:48;14.03;;;3.90;;
18544;SDS011;9402;51.460;7.276;2023-05-28T11:44:50;9.80;;;3.60;;
18544;SDS011;9402;51.460;7.276;2023-05-28T11:46:53;10.60;;;3.00;;
18544;SDS011;9402;51.460;7.276;2023-05-28T11:48:55;8.20;;;3.60;;
18544;SDS011;9402;51.460;7.276;2023-05-28T11:50:58;6.83;;;3.00;;
18544;SDS011;9402;51.460;7.276;2023-05-28T11:53:00;8.10;;;2.93;;
18544;SDS011;9402;51.460;7.276;2023-05-28T11:55:02;5.40;;;3.00;;
18544;SDS011;9402;51.460;7.276;2023-05-28T11:57:04;5.13;;;2.73;;
18544;SDS011;9402;51.460;7.276;2023-05-28T11:59:08;10.43;;;4.00;;
18544;SDS011;9402;51.460;7.276;2023-05-28T12:01:12;9.73;;;3.73;;
18544;SDS011;9402;51.460;7.276;2023-05-28T12:03:14;8.03;;;3.77;;
18544;SDS011;9402;51.460;7.276;2023-05-28T12:05:16;8.20;;;2.70;;
18544;SDS011;9402;51.460;7.276;2023-05-28T12:07:18;22.20;;;2.80;;
18544;SDS011;9402;51.460;7.276;2023-05-28T12:09:20;20.73;;;3.03;;
18544;SDS011;9402;51.460;7.276;2023-05-28T12:11:24;7.43;;;3.60;;
18544;SDS011;9402;51.460;7.276;2023-05-28T12:13:29;6.23;;;3.17;;
18544;SDS011;9402;51.460;7.276;2023-05-28T12:15:33;6.43;;;3.67;;
18544;SDS011;9402;51.460;7.276;2023-05-28T12:17:35;17.37;;;3.60;;
18544;SDS011;9402;51.460;7.276;2023-05-28T12:19:43;7.27;;;2.83;;